Hutchinson Municipal Airport
KHUT : now visible

Airfield :











YOU CAN JOIN US ON...

 
LOGIN :

Register | Disclaimer

   EN    FR    IT 

 









Legend :    VFR   Marginal VFR   IFR   Intensive IFR   Very Intensive IFR
Visi :
Ceiling :
>= 8 km
>= 3000ft
5 to 8 km
1000 to 3000 ft
1500m to 5 km
500 to 1000 ft
800 to 1500m
200 to 500 ft
< 800m
< 200 ft
Symbols :   Thunderstorms  Fog  Heavy snow  Heavy precipitations  Wind > 20 kt






- Airport Elevation : 1543 ft


KHUT - Hutchinson Municipal

CURRENT METAR :
  • 182052Z 31013G19KT 10SM CLR 17/M03 A3003 RMK AO2 SLP165 T01671028 58014

EXPIRED METARs :
  • 181952Z 30013G23KT 10SM SCT065 17/M02 A3006 RMK AO2 SLP173 T01671022
  • 181852Z 31010KT 10SM FEW060 16/M02 A3006 RMK AO2 SLP174 T01561022

TAF KHUT
Valid from the 18 at 18:00 until the 19 at 18:00 UTC


181731Z 1818/1918 29010KT P6SM SCT050
FM190200 21005KT P6SM SKC
FM191700 25009KT P6SM FEW100
KZKC FIR / North America



MET'MAP, your aeronautical weather chart ! - Copyright ORBIFLY December 2007 - Disclaimer

ORBIFLY MET'MAP TEAM :

Programming & Development : Alexandra Zaïnal
Concept & original design : Baudouin d'Aumeries
Assistance for programming : Marc-Olivier Méhu
Technical & hardware support : Manuel Goepfert

Contact : metmap@orbifly.com




SOURCES & CREDITS :

   NOAA       Earth
Advisory